createdAt,value
2022-11-26T00:00:53.267Z,7.52
2022-11-26T00:03:19.815Z,7.46
2022-11-26T00:05:46.226Z,7.57
2022-11-26T00:08:12.540Z,7.49
2022-11-26T00:10:38.840Z,7.49
2022-11-26T00:13:05.132Z,7.57
2022-11-26T00:15:31.440Z,7.33
2022-11-26T00:17:57.731Z,7.17
2022-11-26T00:20:24.040Z,7.21
2022-11-26T00:22:50.353Z,7.33
2022-11-26T00:25:16.648Z,7.20
2022-11-26T00:27:42.942Z,7.19
2022-11-26T00:30:09.296Z,7.14
2022-11-26T00:32:35.586Z,7.08
2022-11-26T00:35:01.889Z,7.11
2022-11-26T00:37:28.210Z,7.02
2022-11-26T00:39:54.512Z,7.05
2022-11-26T00:42:20.803Z,7.03
2022-11-26T00:44:47.131Z,6.93
2022-11-26T00:47:13.430Z,7.02
2022-11-26T00:49:39.728Z,7.07
2022-11-26T00:52:06.041Z,7.07
2022-11-26T00:54:32.325Z,6.99
2022-11-26T00:56:58.626Z,6.94
2022-11-26T00:59:24.962Z,6.95
2022-11-26T01:01:51.315Z,6.93
2022-11-26T01:04:17.629Z,6.83
2022-11-26T01:06:43.957Z,6.88
2022-11-26T01:09:10.245Z,6.96
2022-11-26T01:11:36.581Z,6.90
2022-11-26T01:14:02.915Z,6.84
2022-11-26T01:16:29.269Z,6.91
2022-11-26T01:18:55.592Z,6.90
2022-11-26T01:21:21.909Z,6.96
2022-11-26T01:23:48.194Z,6.73
2022-11-26T01:26:14.477Z,6.63
2022-11-26T01:28:40.788Z,6.61
2022-11-26T01:31:07.092Z,6.61
2022-11-26T01:33:33.391Z,6.60
2022-11-26T01:35:59.744Z,6.61
2022-11-26T01:38:26.035Z,6.71
2022-11-26T01:40:52.325Z,6.63
2022-11-26T01:43:18.631Z,6.84
2022-11-26T01:45:45.021Z,6.94
2022-11-26T01:48:11.346Z,6.88
2022-11-26T01:50:37.656Z,6.94
2022-11-26T01:53:03.948Z,6.63
2022-11-26T01:55:30.236Z,6.73
2022-11-26T01:57:56.544Z,6.83
2022-11-26T02:00:22.831Z,6.88
2022-11-26T02:02:49.169Z,6.90
2022-11-26T02:05:15.514Z,6.90
2022-11-26T02:07:41.856Z,6.98
2022-11-26T02:10:08.186Z,7.05
2022-11-26T02:12:34.493Z,6.91
2022-11-26T02:15:00.804Z,6.94
2022-11-26T02:17:27.101Z,6.83
2022-11-26T02:19:53.416Z,6.73
2022-11-26T02:22:19.708Z,6.74
2022-11-26T02:24:45.992Z,6.74
2022-11-26T02:27:12.292Z,6.68
2022-11-26T02:29:38.604Z,6.79
2022-11-26T02:32:04.990Z,6.82
2022-11-26T02:34:36.986Z,6.83
2022-11-26T02:37:03.924Z,6.70
2022-11-26T02:39:30.208Z,6.62
2022-11-26T02:41:56.570Z,6.88
2022-11-26T02:44:22.867Z,6.98
2022-11-26T02:46:51.540Z,7.01
2022-11-26T02:49:17.857Z,6.94
2022-11-26T02:51:45.776Z,6.99
2022-11-26T02:54:12.072Z,6.88
2022-11-26T02:56:38.375Z,6.64
2022-11-26T02:59:04.687Z,6.67
2022-11-26T03:01:31.006Z,6.78
2022-11-26T03:03:57.361Z,6.94
2022-11-26T03:06:23.676Z,6.99
2022-11-26T03:08:49.973Z,6.99
2022-11-26T03:11:16.275Z,7.04
2022-11-26T03:13:42.570Z,7.07
2022-11-26T03:16:08.898Z,7.01
2022-11-26T03:18:35.218Z,7.07
2022-11-26T03:21:01.572Z,7.07
2022-11-26T03:23:27.878Z,7.09
2022-11-26T03:25:54.184Z,6.98
2022-11-26T03:28:20.489Z,7.01
2022-11-26T03:30:46.840Z,6.94
2022-11-26T03:33:13.153Z,6.87
2022-11-26T03:35:39.451Z,6.86
2022-11-26T03:38:05.752Z,6.97
2022-11-26T03:40:32.076Z,6.99
2022-11-26T03:42:58.377Z,6.99
2022-11-26T03:45:24.660Z,6.88
2022-11-26T03:47:51.010Z,6.83
2022-11-26T03:50:17.314Z,6.99
2022-11-26T03:52:43.603Z,6.85
2022-11-26T03:55:09.919Z,6.76
2022-11-26T03:57:36.204Z,7.02
2022-11-26T04:00:02.497Z,6.89
2022-11-26T04:02:28.807Z,6.98
2022-11-26T04:04:55.108Z,6.89
2022-11-26T04:07:21.457Z,6.91
2022-11-26T04:09:47.797Z,6.93
2022-11-26T04:12:14.095Z,6.62
2022-11-26T04:14:40.765Z,6.53
2022-11-26T04:17:07.296Z,6.69
2022-11-26T04:19:33.577Z,6.60
2022-11-26T04:21:59.877Z,6.58
2022-11-26T04:24:26.186Z,6.59
2022-11-26T04:26:52.482Z,6.46
2022-11-26T04:29:18.780Z,6.48
2022-11-26T04:31:45.090Z,6.63
2022-11-26T04:34:11.405Z,6.44
2022-11-26T04:36:37.704Z,6.38
2022-11-26T04:39:04.015Z,6.38
2022-11-26T04:41:30.316Z,6.33
2022-11-26T04:43:56.615Z,6.16
2022-11-26T04:46:22.926Z,6.34
2022-11-26T04:48:49.215Z,6.22
2022-11-26T04:51:15.520Z,6.36
2022-11-26T04:53:41.873Z,6.32
2022-11-26T04:56:08.160Z,6.43
2022-11-26T04:58:34.446Z,6.04
2022-11-26T05:01:00.794Z,6.21
2022-11-26T05:03:27.124Z,6.40
2022-11-26T05:05:53.425Z,6.42
2022-11-26T05:08:19.737Z,6.39
2022-11-26T05:10:46.040Z,6.42
2022-11-26T05:13:12.339Z,6.47
2022-11-26T05:15:38.752Z,6.41
2022-11-26T05:18:05.050Z,6.36
2022-11-26T05:20:31.349Z,6.29
2022-11-26T05:22:57.654Z,6.28
2022-11-26T05:25:23.944Z,6.37
2022-11-26T05:27:50.247Z,6.29
2022-11-26T05:30:16.577Z,6.32
2022-11-26T05:32:42.861Z,6.28
2022-11-26T05:35:09.155Z,6.38
2022-11-26T05:37:35.464Z,6.18
2022-11-26T05:40:01.756Z,6.24
2022-11-26T05:42:28.042Z,6.16
2022-11-26T05:44:54.338Z,6.20
2022-11-26T05:47:20.623Z,6.11
2022-11-26T05:49:46.910Z,6.03
2022-11-26T05:52:13.232Z,5.85
2022-11-26T05:54:39.806Z,6.00
2022-11-26T05:57:06.321Z,5.88
2022-11-26T05:59:32.668Z,5.84
2022-11-26T06:01:59.016Z,5.98
2022-11-26T06:04:25.330Z,5.94
2022-11-26T06:06:51.643Z,5.86
2022-11-26T06:09:17.926Z,5.78
2022-11-26T06:11:44.209Z,5.67
2022-11-26T06:14:10.568Z,5.76
2022-11-26T06:16:36.927Z,5.81
2022-11-26T06:19:03.247Z,5.84
2022-11-26T06:21:29.556Z,5.78
2022-11-26T06:23:59.323Z,5.94
2022-11-26T06:26:26.116Z,5.75
2022-11-26T06:28:52.430Z,5.84
2022-11-26T06:31:18.762Z,5.75
2022-11-26T06:33:45.092Z,5.67
2022-11-26T06:36:11.399Z,5.84
2022-11-26T06:38:37.688Z,5.88
2022-11-26T06:41:03.979Z,5.72
2022-11-26T06:43:30.294Z,5.84
2022-11-26T06:45:56.750Z,5.86
2022-11-26T06:48:23.042Z,5.85
2022-11-26T06:50:49.356Z,5.81
2022-11-26T06:53:15.630Z,5.74
2022-11-26T06:55:41.927Z,5.85
2022-11-26T06:58:08.233Z,5.79
2022-11-26T07:00:34.519Z,5.80
2022-11-26T07:03:00.842Z,5.74
2022-11-26T07:05:27.235Z,5.80
2022-11-26T07:07:53.609Z,5.86
2022-11-26T07:10:19.945Z,5.83
2022-11-26T07:12:46.271Z,5.89
2022-11-26T07:15:12.547Z,6.04
2022-11-26T07:17:38.831Z,6.10
2022-11-26T07:20:05.146Z,6.18
2022-11-26T07:22:31.447Z,6.09
2022-11-26T07:24:57.746Z,6.03
2022-11-26T07:27:24.065Z,6.03
2022-11-26T07:29:50.358Z,6.17
2022-11-26T07:32:16.665Z,6.24
2022-11-26T07:34:42.972Z,6.33
2022-11-26T07:37:09.267Z,6.51
2022-11-26T07:39:35.561Z,6.41
2022-11-26T07:42:01.880Z,6.53
2022-11-26T07:44:28.177Z,6.53
2022-11-26T07:46:54.597Z,6.51
2022-11-26T07:49:20.913Z,6.46
2022-11-26T07:51:47.230Z,6.41
2022-11-26T07:54:13.548Z,6.47
2022-11-26T07:56:39.860Z,6.62
2022-11-26T07:59:06.456Z,6.71
2022-11-26T08:01:32.892Z,6.68
2022-11-26T08:03:59.279Z,6.77
2022-11-26T08:06:25.571Z,6.89
2022-11-26T08:08:51.881Z,6.72
2022-11-26T08:11:18.239Z,6.94
2022-11-26T08:13:44.531Z,7.10
2022-11-26T08:16:10.888Z,7.25
2022-11-26T08:18:37.268Z,7.24
2022-11-26T08:21:03.565Z,7.28
2022-11-26T08:23:29.864Z,7.33
2022-11-26T08:26:21.516Z,7.42
2022-11-26T08:28:42.728Z,6.73
2022-11-26T08:31:09.081Z,7.04
2022-11-26T08:33:35.418Z,7.47
2022-11-26T08:36:08.998Z,7.59
2022-11-26T08:38:35.321Z,7.50
2022-11-26T08:41:01.622Z,7.45
2022-11-26T08:43:45.294Z,7.33
2022-11-26T08:46:14.497Z,7.04
2022-11-26T08:48:40.891Z,7.21
2022-11-26T08:51:07.312Z,7.27
2022-11-26T08:53:33.614Z,7.09
2022-11-26T08:56:00.645Z,7.74
2022-11-26T08:58:27.049Z,8.29
2022-11-26T09:00:53.443Z,7.70
2022-11-26T09:03:19.840Z,7.91
2022-11-26T09:05:46.176Z,7.68
2022-11-26T09:08:12.488Z,7.93
2022-11-26T09:10:38.781Z,8.24
2022-11-26T09:13:05.131Z,8.47
2022-11-26T09:15:31.479Z,8.54
2022-11-26T09:17:57.767Z,8.36
2022-11-26T09:20:24.104Z,8.49
2022-11-26T09:22:50.473Z,8.57
2022-11-26T09:25:16.774Z,8.67
2022-11-26T09:27:43.077Z,8.73
2022-11-26T09:30:09.383Z,8.60
2022-11-26T09:32:35.761Z,8.92
2022-11-26T09:35:02.107Z,9.17
2022-11-26T09:37:29.798Z,9.38
2022-11-26T09:39:56.097Z,9.65
2022-11-26T09:42:22.397Z,9.68
2022-11-26T09:44:48.737Z,9.78
2022-11-26T09:47:15.037Z,9.93
2022-11-26T09:49:41.342Z,10.08
2022-11-26T09:52:07.650Z,10.18
2022-11-26T09:54:33.943Z,10.14
2022-11-26T09:57:00.232Z,10.21
2022-11-26T09:59:26.547Z,10.43
2022-11-26T10:01:52.897Z,10.23
2022-11-26T10:04:19.207Z,10.05
2022-11-26T10:06:45.528Z,10.27
2022-11-26T10:09:11.824Z,10.11
2022-11-26T10:11:38.119Z,9.82
2022-11-26T10:14:04.445Z,10.20
2022-11-26T10:16:30.781Z,10.15
2022-11-26T10:18:57.169Z,9.71
2022-11-26T10:21:37.693Z,9.63
2022-11-26T10:24:09.787Z,10.04
2022-11-26T10:26:36.157Z,10.15
2022-11-26T10:29:02.460Z,10.26
2022-11-26T10:31:28.778Z,10.12
2022-11-26T10:33:55.112Z,10.31
2022-11-26T10:36:21.423Z,10.20
2022-11-26T10:38:47.731Z,10.32
2022-11-26T10:41:14.044Z,10.32
2022-11-26T10:43:40.387Z,10.67
2022-11-26T10:46:06.704Z,10.53
2022-11-26T10:48:33.034Z,10.37
2022-11-26T10:50:59.331Z,10.15
2022-11-26T10:53:25.627Z,10.04
2022-11-26T10:55:52.004Z,10.21
2022-11-26T10:58:18.293Z,10.30
2022-11-26T11:00:44.823Z,10.28
2022-11-26T11:03:11.241Z,10.45
2022-11-26T11:05:37.540Z,10.64
2022-11-26T11:08:03.928Z,10.70
2022-11-26T11:10:30.324Z,11.01
2022-11-26T11:12:56.622Z,10.61
2022-11-26T11:15:22.924Z,10.40
2022-11-26T11:17:49.236Z,10.47
2022-11-26T11:20:15.530Z,10.09
2022-11-26T11:22:41.846Z,10.34
2022-11-26T11:25:08.200Z,10.05
2022-11-26T11:27:34.484Z,9.94
2022-11-26T11:30:00.781Z,9.77
2022-11-26T11:32:27.096Z,10.20
2022-11-26T11:34:53.400Z,10.29
2022-11-26T11:37:19.707Z,9.92
2022-11-26T11:39:46.060Z,9.75
2022-11-26T11:42:12.356Z,9.99
2022-11-26T11:44:38.947Z,10.01
2022-11-26T11:47:05.486Z,10.19
2022-11-26T11:49:31.778Z,10.13
2022-11-26T11:51:58.076Z,10.06
2022-11-26T11:54:24.407Z,10.32
2022-11-26T11:56:50.751Z,10.56
2022-11-26T11:59:17.065Z,10.46
2022-11-26T12:01:43.463Z,9.99
2022-11-26T12:04:11.957Z,10.01
2022-11-26T12:06:41.441Z,9.96
2022-11-26T12:09:07.763Z,9.86
2022-11-26T12:11:34.056Z,9.79
2022-11-26T12:14:00.353Z,9.61
2022-11-26T12:16:26.685Z,9.76
2022-11-26T12:18:53.040Z,9.88
2022-11-26T12:21:19.339Z,9.73
2022-11-26T12:23:45.651Z,9.77
2022-11-26T12:26:12.087Z,9.75
2022-11-26T12:28:38.400Z,9.68
2022-11-26T12:31:04.759Z,9.52
2022-11-26T12:33:31.047Z,9.52
2022-11-26T12:35:57.343Z,9.76
2022-11-26T12:38:23.665Z,9.67
2022-11-26T12:40:50.039Z,9.81
2022-11-26T12:43:16.335Z,9.79
2022-11-26T12:45:42.773Z,9.72
2022-11-26T12:48:09.171Z,9.80
2022-11-26T12:50:35.513Z,9.86
2022-11-26T12:53:01.830Z,9.82
2022-11-26T12:55:28.138Z,9.58
2022-11-26T12:57:54.423Z,9.54
2022-11-26T13:00:25.441Z,9.59
2022-11-26T13:02:52.976Z,9.72
2022-11-26T13:05:19.513Z,9.66
2022-11-26T13:07:45.950Z,9.35
2022-11-26T13:10:12.291Z,9.58
2022-11-26T13:12:38.581Z,9.44
2022-11-26T13:15:04.900Z,9.68
2022-11-26T13:17:31.205Z,9.53
2022-11-26T13:19:57.493Z,9.58
2022-11-26T13:22:23.800Z,9.57
2022-11-26T13:24:50.113Z,9.49
2022-11-26T13:27:16.416Z,9.53
2022-11-26T13:29:42.732Z,9.66
2022-11-26T13:32:12.882Z,9.51
2022-11-26T13:34:39.845Z,9.48
2022-11-26T13:37:06.491Z,9.53
2022-11-26T13:39:32.780Z,9.36
2022-11-26T13:41:59.066Z,9.32
2022-11-26T13:44:25.387Z,9.37
2022-11-26T13:46:51.685Z,9.40
2022-11-26T13:49:17.982Z,9.29
2022-11-26T13:51:44.337Z,9.25
2022-11-26T13:54:10.642Z,9.32
2022-11-26T13:56:36.935Z,9.29
2022-11-26T13:59:03.250Z,9.09
2022-11-26T14:01:29.626Z,9.13
2022-11-26T14:03:55.964Z,9.20
2022-11-26T14:06:22.284Z,9.23
2022-11-26T14:08:48.575Z,9.20
2022-11-26T14:11:19.705Z,9.10
2022-11-26T14:13:48.627Z,9.06
2022-11-26T14:16:15.080Z,9.09
2022-11-26T14:18:41.406Z,9.04
2022-11-26T14:21:07.728Z,9.08
2022-11-26T14:23:34.024Z,9.13
2022-11-26T14:26:00.324Z,9.16
2022-11-26T14:28:26.632Z,9.10
2022-11-26T14:30:52.931Z,9.13
2022-11-26T14:33:19.227Z,9.11
2022-11-26T14:35:45.531Z,9.22
2022-11-26T14:38:11.837Z,9.27
2022-11-26T14:40:38.134Z,9.19
2022-11-26T14:43:04.708Z,9.23
2022-11-26T14:45:31.049Z,9.24
2022-11-26T14:47:57.374Z,9.32
2022-11-26T14:50:23.688Z,9.26
2022-11-26T14:52:50.004Z,9.18
2022-11-26T14:55:16.366Z,9.02
2022-11-26T14:57:42.709Z,8.83
2022-11-26T15:00:08.999Z,8.96
2022-11-26T15:02:35.321Z,8.97
2022-11-26T15:05:01.681Z,8.91
2022-11-26T15:07:28.018Z,9.01
2022-11-26T15:09:54.326Z,8.97
2022-11-26T15:12:20.634Z,9.04
2022-11-26T15:14:46.947Z,9.06
2022-11-26T15:17:13.314Z,9.20
2022-11-26T15:19:39.681Z,9.08
2022-11-26T15:22:06.017Z,9.05
2022-11-26T15:24:32.317Z,8.98
2022-11-26T15:26:58.623Z,9.03
2022-11-26T15:29:24.912Z,9.08
2022-11-26T15:31:51.275Z,8.87
2022-11-26T15:34:17.613Z,8.78
2022-11-26T15:36:44.048Z,9.00
2022-11-26T15:39:10.364Z,8.87
2022-11-26T15:41:40.919Z,8.82
2022-11-26T15:44:08.633Z,8.65
2022-11-26T15:46:35.029Z,8.60
2022-11-26T15:49:01.444Z,8.57
2022-11-26T15:51:33.765Z,8.66
2022-11-26T15:54:01.400Z,8.76
2022-11-26T15:56:27.697Z,8.93
2022-11-26T15:58:53.995Z,9.00
2022-11-26T16:01:20.377Z,8.85
2022-11-26T16:03:46.709Z,8.74
2022-11-26T16:06:13.070Z,8.81
2022-11-26T16:08:39.384Z,8.79
2022-11-26T16:11:05.670Z,8.56
2022-11-26T16:13:31.956Z,8.63
2022-11-26T16:15:58.278Z,8.64
2022-11-26T16:18:24.660Z,8.67
2022-11-26T16:20:50.956Z,8.75
2022-11-26T16:23:17.284Z,8.64
2022-11-26T16:25:43.572Z,8.43
2022-11-26T16:28:09.875Z,8.46
2022-11-26T16:30:36.256Z,8.64
2022-11-26T16:33:02.643Z,8.22
2022-11-26T16:35:46.118Z,8.54
2022-11-26T16:38:12.945Z,8.53
2022-11-26T16:40:39.253Z,8.53
2022-11-26T16:43:05.552Z,8.56
2022-11-26T16:45:31.882Z,8.55
2022-11-26T16:47:58.177Z,8.49
2022-11-26T16:50:24.473Z,8.32
2022-11-26T16:52:50.828Z,8.43
2022-11-26T16:55:17.123Z,8.19
2022-11-26T16:57:43.418Z,8.06
2022-11-26T17:00:09.719Z,7.92
2022-11-26T17:02:36.102Z,8.23
2022-11-26T17:05:02.475Z,7.98
2022-11-26T17:07:28.816Z,8.12
2022-11-26T17:09:55.125Z,7.81
2022-11-26T17:12:21.433Z,8.02
2022-11-26T17:14:47.743Z,8.18
2022-11-26T17:17:14.099Z,8.20
2022-11-26T17:19:40.830Z,8.02
2022-11-26T17:22:07.458Z,7.92
2022-11-26T17:24:33.746Z,7.71
2022-11-26T17:27:00.045Z,7.98
2022-11-26T17:29:26.355Z,7.69
2022-11-26T17:31:52.643Z,7.89
2022-11-26T17:34:18.945Z,7.92
2022-11-26T17:36:45.251Z,7.98
2022-11-26T17:39:11.525Z,8.14
2022-11-26T17:41:37.807Z,8.00
2022-11-26T17:44:04.108Z,7.86
2022-11-26T17:46:35.745Z,7.93
2022-11-26T17:49:14.586Z,7.77
2022-11-26T17:51:40.870Z,7.80
2022-11-26T17:54:07.149Z,7.94
2022-11-26T17:56:33.512Z,7.79
2022-11-26T17:58:59.811Z,7.88
2022-11-26T18:01:26.160Z,7.76
2022-11-26T18:03:52.536Z,8.00
2022-11-26T18:06:18.823Z,7.96
2022-11-26T18:08:45.124Z,7.85
2022-11-26T18:11:11.432Z,7.88
2022-11-26T18:13:37.732Z,7.89
2022-11-26T18:16:04.144Z,8.05
2022-11-26T18:18:30.457Z,7.89
2022-11-26T18:20:56.763Z,7.73
2022-11-26T18:23:23.057Z,7.79
2022-11-26T18:25:49.368Z,7.73
2022-11-26T18:28:15.671Z,7.74
2022-11-26T18:30:42.027Z,7.82
2022-11-26T18:33:08.359Z,7.87
2022-11-26T18:35:34.641Z,7.84
2022-11-26T18:38:00.926Z,7.90
2022-11-26T18:40:27.226Z,7.88
2022-11-26T18:42:53.514Z,7.91
2022-11-26T18:45:19.794Z,7.84
2022-11-26T18:47:46.089Z,7.89
2022-11-26T18:50:12.375Z,7.80
2022-11-26T18:52:38.672Z,7.81
2022-11-26T18:55:04.967Z,7.76
2022-11-26T18:57:31.247Z,7.77
2022-11-26T18:59:57.558Z,7.78
2022-11-26T19:02:23.988Z,7.83
2022-11-26T19:04:50.320Z,7.82
2022-11-26T19:07:16.668Z,7.70
2022-11-26T19:09:43.388Z,7.73
2022-11-26T19:12:09.792Z,7.67
2022-11-26T19:14:36.088Z,7.65
2022-11-26T19:17:02.561Z,7.76
2022-11-26T19:19:28.931Z,7.78
2022-11-26T19:22:00.498Z,7.72
2022-11-26T19:24:27.587Z,7.81
2022-11-26T19:26:53.890Z,7.79
2022-11-26T19:29:20.191Z,7.66
2022-11-26T19:31:46.507Z,7.81
2022-11-26T19:34:12.809Z,7.72
2022-11-26T19:36:39.107Z,7.80
2022-11-26T19:39:05.437Z,7.75
2022-11-26T19:41:31.759Z,7.69
2022-11-26T19:43:58.065Z,7.78
2022-11-26T19:46:24.496Z,7.77
2022-11-26T19:48:50.861Z,7.74
2022-11-26T19:51:17.160Z,7.55
2022-11-26T19:53:43.485Z,7.77
2022-11-26T19:56:09.908Z,7.79
2022-11-26T19:58:36.206Z,7.77
2022-11-26T20:01:02.634Z,7.56
2022-11-26T20:03:32.894Z,7.40
2022-11-26T20:06:02.097Z,7.21
2022-11-26T20:08:28.456Z,7.22
2022-11-26T20:10:54.748Z,7.21
2022-11-26T20:13:21.045Z,7.08
2022-11-26T20:15:47.360Z,6.98
2022-11-26T20:18:13.671Z,7.04
2022-11-26T20:20:39.972Z,7.03
2022-11-26T20:23:06.288Z,7.11
2022-11-26T20:25:32.589Z,7.09
2022-11-26T20:27:58.882Z,7.29
2022-11-26T20:30:25.194Z,7.09
2022-11-26T20:32:51.489Z,7.23
2022-11-26T20:35:17.770Z,7.30
2022-11-26T20:37:44.089Z,7.37
2022-11-26T20:40:10.391Z,7.14
2022-11-26T20:42:36.683Z,7.33
2022-11-26T20:45:02.996Z,7.16
2022-11-26T20:47:29.294Z,7.22
2022-11-26T20:49:55.592Z,7.21
2022-11-26T20:52:21.911Z,7.19
2022-11-26T20:54:52.268Z,7.21
2022-11-26T20:57:20.028Z,7.31
2022-11-26T20:59:46.355Z,7.35
2022-11-26T21:02:12.691Z,7.14
2022-11-26T21:04:39.112Z,7.34
2022-11-26T21:07:05.443Z,7.42
2022-11-26T21:09:31.744Z,7.37
2022-11-26T21:11:58.050Z,7.19
2022-11-26T21:14:24.419Z,7.11
2022-11-26T21:16:50.739Z,7.29
2022-11-26T21:19:17.055Z,7.28
2022-11-26T21:21:43.378Z,7.50
2022-11-26T21:24:09.679Z,7.63
2022-11-26T21:26:35.975Z,7.68
2022-11-26T21:29:02.281Z,7.66
2022-11-26T21:31:28.576Z,7.62
2022-11-26T21:33:54.864Z,7.53
2022-11-26T21:36:21.175Z,7.68
2022-11-26T21:38:47.471Z,7.72
2022-11-26T21:41:13.773Z,7.77
2022-11-26T21:43:40.093Z,7.71
2022-11-26T21:46:06.424Z,7.69
2022-11-26T21:48:32.826Z,7.73
2022-11-26T21:50:59.139Z,7.66
2022-11-26T21:53:25.436Z,7.60
2022-11-26T21:55:51.753Z,7.65
2022-11-26T21:58:18.075Z,7.65
2022-11-26T22:00:44.368Z,7.50
2022-11-26T22:03:11.638Z,7.38
2022-11-26T22:05:38.083Z,7.48
2022-11-26T22:08:04.623Z,7.31
2022-11-26T22:10:35.918Z,7.40
2022-11-26T22:13:02.542Z,7.12
2022-11-26T22:15:28.831Z,7.23
2022-11-26T22:17:55.121Z,7.29
2022-11-26T22:20:21.488Z,7.19
2022-11-26T22:22:47.776Z,7.07
2022-11-26T22:25:14.059Z,7.19
2022-11-26T22:27:40.389Z,7.16
2022-11-26T22:30:06.684Z,6.96
2022-11-26T22:32:32.978Z,7.01
2022-11-26T22:34:59.302Z,7.17
2022-11-26T22:37:25.591Z,7.22
2022-11-26T22:39:53.957Z,7.01
2022-11-26T22:42:20.430Z,7.09
2022-11-26T22:44:46.706Z,6.67
2022-11-26T22:47:13.006Z,6.91
2022-11-26T22:49:39.640Z,6.98
2022-11-26T22:52:06.122Z,6.54
2022-11-26T22:54:32.406Z,6.54
2022-11-26T22:56:58.697Z,6.72
2022-11-26T22:59:24.988Z,6.61
2022-11-26T23:01:51.261Z,6.58
2022-11-26T23:04:17.549Z,6.75
2022-11-26T23:06:43.825Z,6.35
2022-11-26T23:09:10.096Z,6.39
2022-11-26T23:11:36.389Z,6.28
2022-11-26T23:14:02.789Z,6.48
2022-11-26T23:16:29.311Z,6.36
2022-11-26T23:18:55.701Z,6.58
2022-11-26T23:21:21.979Z,6.46
2022-11-26T23:23:48.256Z,6.43
2022-11-26T23:26:14.589Z,6.39
2022-11-26T23:28:40.859Z,6.44
2022-11-26T23:31:07.246Z,6.57
2022-11-26T23:33:33.604Z,6.40
2022-11-26T23:35:59.884Z,6.64
2022-11-26T23:38:26.167Z,6.48
2022-11-26T23:40:52.453Z,6.48
2022-11-26T23:43:18.742Z,6.69
2022-11-26T23:45:45.082Z,6.51
2022-11-26T23:48:11.413Z,6.86
2022-11-26T23:50:37.700Z,6.57
2022-11-26T23:53:04.023Z,6.76
2022-11-26T23:55:30.344Z,6.77
2022-11-26T23:57:56.660Z,6.72
